Tiempo atmosférico en la estación meteorológica de Chandrexa De Queixa, Ourense (990 m.)



Fecha
DESCASC
Temp. máxima en grados centígrados (hora)
DESCASC
Temp. mínima en grados centígrados (hora)
DESCASC
Temp. media en grados centígrados
DESCASC
Racha de viento máxima en m/sg (hora)
DESCASC
Velocidad máxima media en intervalos de 10 minutos(hora)
DESCASC
Precipitaciones diarias en mm
DESCASC
Precipitaciones de 00:00 a 06:00 en mm
DESCASC
Precipitaciones de 06:00 a 12:00 en mm
DESCASC
Precipitaciones de 12:00 a 18:00 en mm
DESCASC
Precipitaciones de 18:00 a 24:00 en mm
DESCASC
20-06-2018 28.6 (14:20) 13.2 (06:30) 20.9 9.17 (17:20) 3.61 (17:40) 2.8 0 0 2.8 0
19-06-2018 27.6 (16:00) 11.4 (07:40) 19.5 5.56 (09:50) 3.89 (09:50) 0 0 0 0 0
18-06-2018 26.5 (15:40) 10.4 (07:20) 18.4 7.5 (14:50) 3.61 (14:40) 0 0 0 0 0
17-06-2018 24.3 (17:10) 9.8 (07:20) 17 6.39 (16:20) 3.06 (15:20) 0 0 0 0 0
16-06-2018 22.9 (17:10) 7 (07:40) 14.9 6.94 (18:50) 2.78 (17:50) 0 0 0 0 0
15-06-2018 19.9 (16:40) 11.4 (07:40) 15.6 5.83 (17:20) 2.78 (12:50) 0 0 0 0 0
14-06-2018 22.3 (16:00) 5.5 (00:00) 13.9 6.94 (18:40) 3.33 (18:40) 0 0 0 0 0
13-06-2018 18.3 (17:30) 7.6 (08:10) 12.9 5.83 (16:10) 2.78 (13:20) 0 0 0 0 0
12-06-2018 16.3 (17:20) 10.1 (07:30) 13.2 7.5 (19:30) 3.33 (20:00) 3 2.2 0.6 0.2 0
11-06-2018 15.2 (14:00) 8.8 (01:20) 12 7.22 (21:10) 2.78 (19:40) 3.2 0.6 0.4 0 2.2
10-06-2018 15.3 (13:20) 8.1 (00:00) 11.7 6.67 (01:50) 4.17 (02:00) 12.4 0.8 0.4 3 8.2
09-06-2018 14.1 (14:50) 5.6 (00:00) 9.9 11.11 (15:10) 6.39 (13:50) 0.8 0 0 0.2 0.6
08-06-2018 12.4 (17:50) 8.1 (00:00) 10.3 13.61 (18:50) 3.89 (18:50) 11.6 2.6 1.6 2.6 4.8
07-06-2018 13.9 (16:40) 8.4 (00:00) 11.1 10 (18:20) 5.83 (18:50) 1.4 0 0 0.4 1
06-06-2018 13.4 (15:50) 9 (00:00) 11.2 5.28 (16:40) 2.22 (16:30) 2.2 0.8 1 0.4 0
05-06-2018 11.3 (16:00) 7.3 (00:00) 9.3 5.28 (18:10) 1.94 (11:30) 5.4 0.6 4.2 0.4 0.2
04-06-2018 10.6 (14:20) 7.3 (00:00) 9 8.89 (01:20) 3.89 (02:00) 21.4 0 5.8 2.4 13.2
03-06-2018 14.9 (12:40) 7.6 (00:00) 11.2 8.33 (17:10) 4.44 (21:50) 0 0 0 0 0
02-06-2018 19.9 (14:00) 6.7 (00:00) 13.3 9.72 (15:40) 3.06 (15:40) 0 0 0 0 0
01-06-2018 13.4 (18:00) 7.1 (00:00) 10.2 5 (16:50) 2.5 (17:20) 0.2 0 0 0.2 0
31-05-2018 16.1 (16:30) 8.3 (23:59) 12.2 7.5 (16:30) 3.33 (15:00) 0.4 0 0 0 0.4
30-05-2018 11.8 (16:30) 9.2 (00:00) 10.5 5.28 (17:10) 1.94 (20:10) 0 0 0 0 0
29-05-2018 14.2 (17:10) 10.1 (00:00) 12.2 5.83 (18:40) 2.5 (18:40) 10 2.8 0.2 7 0
28-05-2018 12.1 (16:20) 7.9 (00:00) 10 3.61 (11:30) 1.67 (13:00) 3.8 0 0 2.2 1.6
27-05-2018 17.3 (15:50) 8 (00:00) 12.6 7.78 (19:00) 3.33 (19:00) 0.2 0 0.2 0 0
26-05-2018 16.1 (15:50) 7.2 (00:00) 11.7 4.17 (12:10) 2.22 (12:10) 10.4 0 0 2.4 8
25-05-2018 14.3 (13:20) 9.2 (00:00) 11.8 7.22 (11:50) 3.89 (14:00) 10.8 0.2 0.2 2.6 7.8
24-05-2018 20.7 (15:20) 8.4 (00:00) 14.6 13.33 (18:10) 7.22 (17:50) 0.6 0 0 0 0.6
23-05-2018 21.9 (16:10) 8.9 (00:00) 15.4 9.17 (11:30) 5.56 (11:30) 0 0 0 0 0
22-05-2018 18.4 (17:10) 6.7 (00:00) 12.5 4.72 (12:10) 2.78 (12:00) 0.2 0 0 0.2 0

Gráficas

Temp. máximas Temp. mínimas Temp. medias Precipitaciones Rachas de viento máximas Velocidades máximas media en intervalos de 10 minutos

Datos horarios

Fecha y hora oficial Temperatura (ºC) Velocidad del viento (km/h) Dirección del viento Racha (km/h) Dirección de racha Precipitación (mm) Presión (hPa) Tendencia (hPa) Humedad (%)
2018-06-20 23:00:00 18 6 Sur 13 Sur 0 -- -- 94
2018-06-20 22:00:00 18.8 5 Sur 8 Sur 0 -- -- 92
2018-06-20 21:00:00 19.4 0 Calma 6 Sudeste 0 -- -- 92
2018-06-20 20:00:00 19.9 0 Calma 8 Sudeste 0 -- -- 89
2018-06-20 19:00:00 19.2 0 Calma 19 Sur 0 -- -- 86
2018-06-20 18:00:00 19.3 9 Sur 33 Sudoeste 2.8 -- -- 84
2018-06-20 17:00:00 24.9 9 Noroeste 21 Noroeste 0 -- -- 59
2018-06-20 16:00:00 26.6 7 Norte 20 Noroeste 0 -- -- 52
2018-06-20 15:00:00 28.2 7 Noroeste 20 Oeste 0 -- -- 43
2018-06-20 14:00:00 28.2 4 Noroeste 15 Norte 0 -- -- 46
2018-06-20 13:00:00 26.9 6 Norte 12 Nordeste 0 -- -- 54
2018-06-20 12:00:00 25.2 5 Norte 9 Norte 0 -- -- 60
2018-06-20 11:00:00 21.8 5 Norte 8 Norte 0 -- -- 71
2018-06-20 10:00:00 18.4 0 Calma 6 Sudoeste 0 -- -- 82
2018-06-20 09:00:00 16.9 4 Sudoeste 7 Sudoeste 0 -- -- 84
2018-06-20 08:00:00 13.3 2 Sudoeste 5 Sudoeste 0 -- -- 96
2018-06-20 07:00:00 13.2 3 Sudoeste 8 Sudoeste 0 -- -- 95
2018-06-20 06:00:00 13.5 2 Sudoeste 6 Sudoeste 0 -- -- 93
2018-06-20 05:00:00 13.9 4 Sur 6 Sudoeste 0 -- -- 92
2018-06-20 04:00:00 14.5 3 Sudoeste 9 Sudoeste 0 -- -- 90
2018-06-20 03:00:00 15.1 2 Sudoeste 7 Sudoeste 0 -- -- 89
2018-06-20 02:00:00 15.9 3 Oeste 8 Sudoeste 0 -- -- 87
2018-06-20 01:00:00 16.8 4 Sur 7 Sur 0 -- -- 80
2018-06-20 00:00:00 17.8 3 Sur 11 Sur 0 -- -- 77
2018-06-19 23:00:00 19.6 6 Sur 12 Sudeste 0 -- -- 71
2018-06-19 22:00:00 22.4 2 Sur 6 Sur 0 -- -- 63
2018-06-19 21:00:00 24 3 Oeste 11 Noroeste 0 -- -- 55
2018-06-19 20:00:00 24.4 6 Noroeste 19 Noroeste 0 -- -- 55
2018-06-19 19:00:00 24.8 7 Norte 16 Norte 0 -- -- 59
2018-06-19 18:00:00 25.3 5 Nordeste 14 Noroeste 0 -- -- 61
2018-06-19 17:00:00 25.6 6 Norte 18 Norte 0 -- -- 59
2018-06-19 16:00:00 27.6 4 Oeste 15 Norte 0 -- -- 55
2018-06-19 15:00:00 26.2 6 Norte 15 Norte 0 -- -- 50
2018-06-19 14:00:00 25.3 6 Nordeste 15 Norte 0 -- -- 51
2018-06-19 13:00:00 23.8 7 Norte 15 Nordeste 0 -- -- 55
2018-06-19 12:00:00 21.9 8 Nordeste 14 Nordeste 0 -- -- 67
2018-06-19 11:00:00 19.3 9 Norte 17 Nordeste 0 -- -- 79
2018-06-19 10:00:00 16.3 11 Norte 20 Norte 0 -- -- 85
2018-06-19 09:00:00 15.8 4 Norte 6 Norte 0 -- -- 83
2018-06-19 08:00:00 11.4 3 Sur 8 Sudoeste 0 -- -- 96
2018-06-19 07:00:00 11.6 2 Sur 6 Sudoeste 0 -- -- 95
2018-06-19 06:00:00 12.1 3 Sudoeste 5 Sur 0 -- -- 95
2018-06-19 05:00:00 12.9 3 Sur 8 Sudoeste 0 -- -- 95
2018-06-19 04:00:00 13.5 4 Sudoeste 6 Sudoeste 0 -- -- 93
2018-06-19 03:00:00 14.3 4 Sur 6 Sudoeste 0 -- -- 92
2018-06-19 02:00:00 15.1 3 Sudoeste 7 Sur 0 -- -- 90
2018-06-19 01:00:00 16.2 2 Sur 8 Sudoeste 0 -- -- 90
2018-06-19 00:00:00 17.4 2 Sur 6 Sudoeste 0 -- -- 84
2018-06-18 23:00:00 18.8 6 Sur 9 Sudoeste 0 -- -- 82
2018-06-18 22:00:00 21 3 Sur 10 Oeste 0 -- -- 74
2018-06-18 21:00:00 22.6 4 Sudoeste 17 Noroeste 0 -- -- 69
2018-06-18 20:00:00 23.9 5 Noroeste 16 Noroeste 0 -- -- 63
2018-06-18 19:00:00 25 6 Norte 16 Norte 0 -- -- 58
2018-06-18 18:00:00 26.1 6 Norte 22 Norte 0 -- -- 49
2018-06-18 17:00:00 26.4 10 Norte 23 Norte 0 -- -- 46
2018-06-18 16:00:00 26.5 9 Norte 24 Norte 0 -- -- 48
2018-06-18 15:00:00 25.8 12 Norte 27 Norte 0 -- -- 48
2018-06-18 14:00:00 25.4 11 Norte 20 Nordeste 0 -- -- 46
2018-06-18 13:00:00 24.3 8 Norte 18 Nordeste 0 -- -- 48
2018-06-18 12:00:00 22.9 3 Norte 12 Nordeste 0 -- -- 52
2018-06-18 11:00:00 19.7 4 Nordeste 7 Nordeste 0 -- -- 62
2018-06-18 10:00:00 16.1 0 Calma 4 Sudeste 0 -- -- 76
2018-06-18 09:00:00 14.6 0 Calma 5 Oeste 0 -- -- 81
2018-06-18 08:00:00 10.5 2 Sur 4 Sudoeste 0 -- -- 96
2018-06-18 07:00:00 10.5 2 Sudoeste 4 Sudoeste 0 -- -- 95
2018-06-18 06:00:00 11 2 Oeste 8 Sudoeste 0 -- -- 93
2018-06-18 05:00:00 11.4 4 Sur 6 Sudoeste 0 -- -- 92
2018-06-18 04:00:00 11.9 3 Sur 6 Sur 0 -- -- 91
2018-06-18 03:00:00 12.4 4 Sudoeste 6 Sur 0 -- -- 89
2018-06-18 02:00:00 13.2 0 Calma 5 Sudoeste 0 -- -- 87
2018-06-18 01:00:00 13.5 3 Sudoeste 9 Sur 0 -- -- 87
2018-06-18 00:00:00 14.8 3 Sudoeste 10 Sur 0 -- -- 81
2018-06-17 23:00:00 16.5 2 Sur 11 Nordeste 0 -- -- 73
2018-06-17 22:00:00 18.6 5 Norte 18 Norte 0 -- -- 64
2018-06-17 21:00:00 20.3 9 Norte 21 Norte 0 -- -- 60
2018-06-17 20:00:00 21.8 7 Norte 22 Noroeste 0 -- -- 54
2018-06-17 19:00:00 22.7 5 Norte 18 Noroeste 0 -- -- 49
2018-06-17 18:00:00 23.4 9 Norte 19 Nordeste 0 -- -- 46
2018-06-17 17:00:00 24.2 8 Norte 23 Norte 0 -- -- 48
2018-06-17 16:00:00 23.7 10 Norte 22 Norte 0 -- -- 48
2018-06-17 15:00:00 23 10 Norte 22 Nordeste 0 -- -- 51
2018-06-17 14:00:00 22.8 8 Nordeste 19 Norte 0 -- -- 45
2018-06-17 13:00:00 21.4 5 Nordeste 15 Nordeste 0 -- -- 46
2018-06-17 12:00:00 20.1 8 Norte 16 Nordeste 0 -- -- 46
2018-06-17 11:00:00 16.9 3 Nordeste 7 Nordeste 0 -- -- 70
2018-06-17 10:00:00 13 2 Sudeste 14 Norte 0 -- -- 96
2018-06-17 09:00:00 12.3 3 Nordeste 5 Nordeste 0 -- -- 95
2018-06-17 08:00:00 10.2 0 Calma 6 Sur 0 -- -- 100
2018-06-17 07:00:00 10.1 3 Sur 8 Sur 0 -- -- 99
2018-06-17 06:00:00 10.5 0 Calma 5 Sudoeste 0 -- -- 98
2018-06-17 05:00:00 10.7 2 Sur 5 Sur 0 -- -- 98
2018-06-17 04:00:00 11.1 2 Sur 6 Nordeste 0 -- -- 99
2018-06-17 03:00:00 11.2 4 Nordeste 9 Nordeste 0 -- -- 96
2018-06-17 02:00:00 12.1 0 Calma 4 Sudoeste 0 -- -- 96
2018-06-17 01:00:00 13.2 2 Sudoeste 4 Sudoeste 0 -- -- 91
2018-06-17 00:00:00 14.3 2 Sudoeste 4 Sudoeste 0 -- -- 89
2018-06-16 23:00:00 15.3 0 Calma 13 Norte 0 -- -- 87
2018-06-16 22:00:00 16.5 5 Norte 22 Norte 0 -- -- 82
2018-06-16 21:00:00 18 10 Norte 22 Norte 0 -- -- 78
2018-06-16 20:00:00 19.8 7 Norte 25 Noroeste 0 -- -- 69
2018-06-16 19:00:00 20.5 9 Norte 25 Noroeste 0 -- -- 64
2018-06-16 18:00:00 21.5 8 Noroeste 24 Noroeste 0 -- -- 60
2018-06-16 17:00:00 22.8 6 Norte 19 Norte 0 -- -- 46
2018-06-16 16:00:00 22.2 6 Norte 21 Noroeste 0 -- -- 41
2018-06-16 15:00:00 22.4 7 Norte 15 Noroeste 0 -- -- 36
2018-06-16 14:00:00 21.4 6 Norte 14 Nordeste 0 -- -- 33
2018-06-16 13:00:00 20.3 8 Nordeste 18 Norte 0 -- -- 31
2018-06-16 12:00:00 19.8 7 Nordeste 15 Norte 0 -- -- 30
2018-06-16 11:00:00 15.7 0 Calma 4 Sudoeste 0 -- -- 45
2018-06-16 10:00:00 11.8 0 Calma 4 Sudeste 0 -- -- 64
2018-06-16 09:00:00 9.6 2 Sudoeste 7 Oeste 0 -- -- 77
2018-06-16 08:00:00 7.1 3 Sudoeste 9 Sudoeste 0 -- -- 92
2018-06-16 07:00:00 7.6 4 Sudoeste 10 Sudoeste 0 -- -- 87
2018-06-16 06:00:00 8.7 4 Sudoeste 12 Sudoeste 0 -- -- 93
2018-06-16 05:00:00 9.9 4 Sudoeste 12 Oeste 0 -- -- 97
2018-06-16 04:00:00 9.9 4 Sur 11 Sur 0 -- -- 93
2018-06-16 03:00:00 11.6 4 Sur 6 Sur 0 -- -- 96
2018-06-16 02:00:00 11.8 4 Sur 12 Sur 0 -- -- 91
2018-06-16 01:00:00 13.1 4 Sudoeste 8 Sudoeste 0 -- -- 93
2018-06-16 00:00:00 13.5 2 Sudoeste 5 Oeste 0 -- -- 93
2018-06-15 23:00:00 13.5 2 Sur 7 Oeste 0 -- -- 93
2018-06-15 22:00:00 14.3 3 Nordeste 14 Norte 0 -- -- 89
2018-06-15 21:00:00 17.2 4 Noroeste 17 Noroeste 0 -- -- 81
2018-06-15 20:00:00 18 8 Noroeste 19 Noroeste 0 -- -- 78
2018-06-15 19:00:00 19.1 7 Norte 18 Norte 0 -- -- 74
2018-06-15 18:00:00 19.6 6 Noroeste 21 Noroeste 0 -- -- 72
2018-06-15 17:00:00 19.6 6 Noroeste 19 Norte 0 -- -- 74
2018-06-15 16:00:00 19 5 Noroeste 17 Noroeste 0 -- -- 75
2018-06-15 15:00:00 19.3 4 Noroeste 18 Sudoeste 0 -- -- 72
2018-06-15 14:00:00 19.4 4 Noroeste 19 Nordeste 0 -- -- 73
2018-06-15 13:00:00 19 10 Nordeste 19 Nordeste 0 -- -- 74
2018-06-15 12:00:00 18.7 6 Nordeste 12 Norte 0 -- -- 71
2018-06-15 11:00:00 16.2 4 Norte 8 Norte 0 -- -- 82
2018-06-15 10:00:00 13.4 4 Norte 12 Norte 0 -- -- 96
2018-06-15 09:00:00 12.9 6 Norte 11 Norte 0 -- -- 94
2018-06-15 08:00:00 11.4 0 Calma 2 Norte 0 -- -- 97
2018-06-15 07:00:00 11.7 0 Calma 6 Sur 0 -- -- 95
2018-06-15 06:00:00 12 4 Sur 8 Sur 0 -- -- 94
2018-06-15 05:00:00 12.7 5 Sur 12 Sur 0 -- -- 92
2018-06-15 04:00:00 14.1 3 Sur 9 Sur 0 -- -- 93
2018-06-15 03:00:00 14.6 2 Sur 7 Norte 0 -- -- 92
2018-06-15 02:00:00 14.9 5 Norte 10 Noroeste 0 -- -- 92
2018-06-15 01:00:00 15.1 0 Calma 6 Noroeste 0 -- -- 89
2018-06-15 00:00:00 15.2 3 Sudeste 8 Sudeste 0 -- -- 82
2018-06-14 23:00:00 15.8 5 Sur 10 Sur 0 -- -- 74
2018-06-14 22:00:00 18.2 2 Sudeste 10 Norte 0 -- -- 65
2018-06-14 21:00:00 19.6 4 Norte 14 Noroeste 0 -- -- 57
2018-06-14 20:00:00 20.3 6 Norte 17 Noroeste 0 -- -- 53
2018-06-14 19:00:00 20.4 7 Noroeste 25 Norte 0 -- -- 48
2018-06-14 18:00:00 21.2 11 Noroeste 20 Noroeste 0 -- -- 50
2018-06-14 17:00:00 21.9 9 Noroeste 21 Noroeste 0 -- -- 48
2018-06-14 16:00:00 22.3 6 Norte 19 Norte 0 -- -- 45
2018-06-14 15:00:00 21.2 4 Norte 14 Nordeste 0 -- -- 43
2018-06-14 14:00:00 20.2 6 Nordeste 20 Norte 0 -- -- 41
2018-06-14 13:00:00 19.9 6 Nordeste 16 Nordeste 0 -- -- 44
2018-06-14 12:00:00 18.9 5 Nordeste 14 Nordeste 0 -- -- 47
2018-06-14 11:00:00 16 3 Nordeste 8 Nordeste 0 -- -- 47
2018-06-14 10:00:00 11.2 0 Calma 4 Sudoeste 0 -- -- 78
2018-06-14 09:00:00 9.9 2 Sudoeste 10 Sudoeste 0 -- -- 80
2018-06-14 08:00:00 6 4 Sudoeste 10 Sudoeste 0 -- -- 99
2018-06-14 07:00:00 5.6 4 Sur 7 Sudoeste 0 -- -- 97
2018-06-14 06:00:00 6.2 3 Sudoeste 7 Sudoeste 0 -- -- 98
2018-06-14 05:00:00 6.5 3 Sur 5 Sudoeste 0 -- -- 98
2018-06-14 04:00:00 6.8 3 Sur 11 Sur 0 -- -- 96
2018-06-14 03:00:00 7.6 0 Calma 7 Sur 0 -- -- 97
2018-06-14 02:00:00 8.1 0 Calma 4 Sur 0 -- -- 92
2018-06-14 01:00:00 9 3 Sur 11 Sur 0 -- -- 93
2018-06-14 00:00:00 10.2 2 Sur 5 Sur 0 -- -- 89
2018-06-13 23:00:00 11.6 0 Calma 8 Nordeste 0 -- -- 86
2018-06-13 22:00:00 13.1 3 Nordeste 12 Norte 0 -- -- 81
2018-06-13 21:00:00 14.8 7 Norte 19 Norte 0 -- -- 75
2018-06-13 20:00:00 15.7 5 Norte 19 Norte 0 -- -- 71
2018-06-13 19:00:00 16.7 9 Norte 19 Noroeste 0 -- -- 67
2018-06-13 18:00:00 17.7 8 Norte 19 Norte 0 -- -- 65
2018-06-13 17:00:00 18 7 Nordeste 21 Norte 0 -- -- 64
2018-06-13 16:00:00 17.5 6 Nordeste 18 Norte 0 -- -- 64
2018-06-13 15:00:00 17 6 Norte 20 Nordeste 0 -- -- 64
2018-06-13 14:00:00 16.6 7 Norte 18 Norte 0 -- -- 66
2018-06-13 13:00:00 16.1 6 Norte 15 Norte 0 -- -- 67
2018-06-13 12:00:00 14.5 6 Nordeste 14 Nordeste 0 -- -- 71
2018-06-13 11:00:00 12.6 6 Nordeste 12 Norte 0 -- -- 81
2018-06-13 10:00:00 9.5 3 Norte 6 Norte 0 -- -- 97
2018-06-13 09:00:00 8.4 2 Sur 4 Sudoeste 0 -- -- 100
2018-06-13 08:00:00 7.7 2 Sur 7 Sur 0 -- -- 100
2018-06-13 07:00:00 8.2 3 Sur 6 Sur 0 -- -- 100
2018-06-13 06:00:00 8.4 3 Sur 8 Sur 0 -- -- 100
2018-06-13 05:00:00 8.5 5 Sur 9 Sur 0 -- -- 100
2018-06-13 04:00:00 8.1 6 Norte 10 Norte 0 -- -- 98
2018-06-13 03:00:00 9.3 4 Sur 9 Sur 0 -- -- 96
2018-06-13 02:00:00 10.6 4 Norte 5 Norte 0 -- -- 95
2018-06-13 01:00:00 11.3 2 Norte 6 Norte 0 -- -- 95
2018-06-13 00:00:00 11.7 3 Norte 6 Norte 0 -- -- 93
2018-06-12 23:00:00 12.1 2 Norte 8 Norte 0 -- -- 92
2018-06-12 22:00:00 12.6 5 Norte 17 Noroeste 0 -- -- 90
2018-06-12 21:00:00 13.7 8 Norte 22 Norte 0 -- -- 86
2018-06-12 20:00:00 15 12 Norte 27 Norte 0 -- -- 81
2018-06-12 19:00:00 15.8 11 Norte 24 Noroeste 0 -- -- 77
2018-06-12 18:00:00 16.2 8 Noroeste 22 Norte 0 -- -- 79
2018-06-12 17:00:00 16 8 Norte 19 Oeste 0 -- -- 77
2018-06-12 16:00:00 15.1 5 Norte 13 Norte 0 -- -- 77
2018-06-12 15:00:00 13.8 3 Norte 15 Noroeste 0 -- -- 91
2018-06-12 14:00:00 12.3 5 Norte 13 Noroeste 0 -- -- 95
2018-06-12 13:00:00 11.2 4 Norte 15 Noroeste 0.2 -- -- 100
2018-06-12 12:00:00 10.6 6 Norte 12 Norte 0.2 -- -- 100
2018-06-12 11:00:00 10.5 2 Norte 10 Norte 0.2 -- -- 100
2018-06-12 10:00:00 10.2 4 Norte 14 Norte 0 -- -- 100
2018-06-12 09:00:00 10.1 3 Norte 13 Este 0.2 -- -- 100
2018-06-12 08:00:00 10.1 2 Norte 18 Norte 0 -- -- 100
2018-06-12 07:00:00 10.4 5 Norte 14 Norte 0 -- -- 100
2018-06-12 06:00:00 10.4 8 Norte 21 Norte 0.2 -- -- 100
2018-06-12 05:00:00 10.7 7 Norte 18 Norte 0.2 -- -- 100
2018-06-12 04:00:00 10.8 7 Norte 18 Noroeste 0.4 -- -- 100
2018-06-12 03:00:00 11.1 5 Norte 13 Noroeste 0.4 -- -- 100
2018-06-12 02:00:00 11.2 5 Norte 12 Noroeste 0.4 -- -- 100
2018-06-12 01:00:00 11.2 4 Norte 18 Norte 0.6 -- -- 100
2018-06-12 00:00:00 11.3 3 Norte 10 Norte 1 -- -- 100
2018-06-11 23:00:00 11.3 4 Norte 10 Norte 0.2 -- -- 99
2018-06-11 22:00:00 11.4 4 Norte 26 Noroeste 0.2 -- -- 99
2018-06-11 21:00:00 11.6 4 Norte 17 Norte 0.2 -- -- 99
2018-06-11 20:00:00 11.9 9 Norte 21 Noroeste 0.4 -- -- 98
2018-06-11 19:00:00 12.3 5 Norte 13 Noroeste 0.2 -- -- 95
2018-06-11 18:00:00 12.1 3 Oeste 14 Oeste 0 -- -- 95
2018-06-11 17:00:00 12 3 Oeste 12 Oeste 0 -- -- 93
2018-06-11 16:00:00 12.9 4 Oeste 19 Oeste 0 -- -- 88
2018-06-11 15:00:00 14.5 7 Noroeste 17 Noroeste 0 -- -- 76
2018-06-11 14:00:00 15.2 5 Norte 13 Norte 0 -- -- 71
2018-06-11 13:00:00 14.1 2 Oeste 10 Nordeste 0 -- -- 81
2018-06-11 12:00:00 11.4 3 Sudeste 8 Sudeste 0 -- -- 93
2018-06-11 11:00:00 10.5 2 Norte 8 Noroeste 0 -- -- 96
2018-06-11 10:00:00 9.2 2 Noroeste 11 Noroeste 0 -- -- 100
2018-06-11 09:00:00 8.8 4 Noroeste 15 Noroeste 0 -- -- 100
2018-06-11 08:00:00 9 3 Norte 12 Noroeste 0.2 -- -- 100
2018-06-11 07:00:00 9 5 Noroeste 14 Noroeste 0.2 -- -- 100
2018-06-11 06:00:00 8.9 0 Calma 6 Noroeste 0.6 -- -- 100
2018-06-11 05:00:00 8.9 2 Noroeste 8 Norte 0 -- -- 98
2018-06-11 04:00:00 9 3 Norte 13 Norte 0 -- -- 98
2018-06-11 03:00:00 9.2 3 Noroeste 10 Noroeste 0 -- -- 100
2018-06-11 02:00:00 9.1 2 Norte 6 Noroeste 0 -- -- 100
2018-06-11 01:00:00 9 0 Calma 7 Sur 0 -- -- 98
2018-06-11 00:00:00 9.9 0 Calma 4 Sudeste 0 -- -- 99
2018-06-10 23:00:00 10.1 0 Calma 5 Nordeste 0.2 -- -- 100
2018-06-10 22:00:00 10.2 3 Nordeste 13 Norte 2 -- -- 100
2018-06-10 21:00:00 10.6 5 Norte 24 Noroeste 1 -- -- 99
2018-06-10 20:00:00 11.1 5 Norte 18 Noroeste 4 -- -- 98
2018-06-10 19:00:00 12.1 6 Noroeste 18 Oeste 1 -- -- 94
2018-06-10 18:00:00 12.3 3 Sudeste 9 Nordeste 0.8 -- -- 94
2018-06-10 17:00:00 12.4 5 Nordeste 17 Norte 0 -- -- 91
2018-06-10 16:00:00 12.6 7 Norte 14 Norte 0 -- -- 93
2018-06-10 15:00:00 12 4 Nordeste 20 Norte 2 -- -- 94
2018-06-10 14:00:00 14.2 5 Noroeste 13 Noroeste 0.2 -- -- 78
2018-06-10 13:00:00 14.1 3 Oeste 12 Oeste 0 -- -- 71
2018-06-10 12:00:00 13.1 4 Sudoeste 17 Sur 0 -- -- 81
2018-06-10 11:00:00 11.4 5 Sur 13 Sur 0 -- -- 89
2018-06-10 10:00:00 9.8 5 Norte 6 Norte 0 -- -- 100
2018-06-10 09:00:00 8.9 3 Norte 15 Sur 0 -- -- 100
2018-06-10 08:00:00 8.2 2 Sur 5 Nordeste 0 -- -- 100
2018-06-10 07:00:00 8.1 0 Calma 5 Nordeste 0.4 -- -- 100
2018-06-10 06:00:00 8.4 0 Calma 6 Oeste 0.4 -- -- 99
2018-06-10 05:00:00 8.5 2 Sudoeste 8 Sudoeste 0 -- -- 98
2018-06-10 04:00:00 8.5 3 Sudoeste 9 Sudoeste 0.2 -- -- 97
2018-06-10 03:00:00 8.7 4 Sudoeste 23 Sur 0.2 -- -- 96
2018-06-10 02:00:00 8.8 15 Sur 24 Sur 0 -- -- 92
2018-06-10 01:00:00 8.9 8 Sudoeste 21 Sudoeste 0 -- -- 93
2018-06-10 00:00:00 8.9 10 Sur 18 Sur 0 -- -- 94
2018-06-09 23:00:00 9.2 9 Sudoeste 24 Sur 0 -- -- 92
2018-06-09 22:00:00 9.6 7 Sudoeste 27 Sudoeste 0 -- -- 91
2018-06-09 21:00:00 10.1 13 Sudoeste 29 Sudoeste 0 -- -- 85
2018-06-09 20:00:00 10.3 7 Sudoeste 21 Sudoeste 0.6 -- -- 90
2018-06-09 19:00:00 10.6 3 Oeste 20 Sudoeste 0 -- -- 87
2018-06-09 18:00:00 12.2 9 Sudoeste 32 Sur 0 -- -- 78
2018-06-09 17:00:00 11.6 17 Sur 35 Sur 0.2 -- -- 81
2018-06-09 16:00:00 11.7 13 Sudoeste 40 Sur 0 -- -- 84
2018-06-09 15:00:00 13.9 19 Sur 37 Sur 0 -- -- 64
2018-06-09 14:00:00 12.7 18 Sur 34 Sur 0 -- -- 70
2018-06-09 13:00:00 12.9 15 Sur 32 Sudoeste 0 -- -- 68
2018-06-09 12:00:00 12.7 14 Sur 32 Sur 0 -- -- 72
2018-06-09 11:00:00 11.4 14 Sur 31 Sur 0 -- -- 79
2018-06-09 10:00:00 8.8 15 Sur 28 Sur 0 -- -- 88
2018-06-09 09:00:00 8.6 13 Sur 20 Sur 0 -- -- 88
2018-06-09 08:00:00 5.8 5 Sur 11 Sur 0 -- -- 100
2018-06-09 07:00:00 6 2 Sur 7 Norte 0 -- -- 100
2018-06-09 06:00:00 6.8 2 Sur 4 Sudoeste 0 -- -- 100
2018-06-09 05:00:00 7 0 Calma 5 Sur 0 -- -- 100
2018-06-09 04:00:00 7.5 3 Sur 6 Sur 0 -- -- 100
2018-06-09 03:00:00 7.4 2 Sudoeste 5 Sur 0 -- -- 100
2018-06-09 02:00:00 7.5 2 Sur 9 Sudoeste 0 -- -- 100
2018-06-09 01:00:00 7.8 2 Sur 6 Sudoeste 0 -- -- 99
2018-06-09 00:00:00 8.1 2 Sudoeste 7 Sur 0.2 -- -- 99
2018-06-08 23:00:00 8.3 0 Calma 6 Sur 0.6 -- -- 98
2018-06-08 22:00:00 8.6 4 Sudoeste 13 Oeste 0.4 -- -- 96
2018-06-08 21:00:00 9.1 3 Sudoeste 15 Sudoeste 0.4 -- -- 97
2018-06-08 20:00:00 9.2 4 Oeste 17 Sur 2.8 -- -- 96
2018-06-08 19:00:00 10.2 12 Sudoeste 49 Sudoeste 0.4 -- -- 88
2018-06-08 18:00:00 12.3 4 Noroeste 12 Noroeste 0 -- -- 89
2018-06-08 17:00:00 11.3 3 Oeste 13 Noroeste 0.4 -- -- 94
2018-06-08 16:00:00 11.3 5 Noroeste 16 Noroeste 0.6 -- -- 93
2018-06-08 15:00:00 11.3 4 Sudoeste 10 Sudoeste 0.8 -- -- 92
2018-06-08 14:00:00 12.1 3 Sur 12 Norte 0.2 -- -- 90
2018-06-08 13:00:00 11.7 3 Norte 10 Nordeste 0.6 -- -- 93
2018-06-08 12:00:00 11.7 4 Norte 10 Nordeste 0.4 -- -- 97
2018-06-08 11:00:00 11 4 Nordeste 9 Nordeste 0.6 -- -- 93
2018-06-08 10:00:00 10.3 4 Sudoeste 12 Sur 0.2 -- -- 96
2018-06-08 09:00:00 9.6 2 Nordeste 5 Este 0 -- -- 100
2018-06-08 08:00:00 8.6 0 Calma 5 Sudeste 0.2 -- -- 99
2018-06-08 07:00:00 9.2 0 Calma 8 Sudoeste 0.2 -- -- 100
2018-06-08 06:00:00 9.5 4 Sur 8 Sur 0 -- -- 100
2018-06-08 05:00:00 9.5 3 Norte 7 Norte 0.4 -- -- 100
2018-06-08 04:00:00 9.7 4 Nordeste 10 Noroeste 1.6 -- -- 100
2018-06-08 03:00:00 10 3 Norte 5 Norte 0.2 -- -- 100
2018-06-08 02:00:00 10.1 2 Nordeste 14 Noroeste 0.2 -- -- 99
2018-06-08 01:00:00 10.8 3 Nordeste 8 Nordeste 0.2 -- -- 99
2018-06-08 00:00:00 11.4 0 Calma 9 Sudoeste 0 -- -- 97
2018-06-07 23:00:00 11.8 0 Calma 7 Sudoeste 0.4 -- -- 98
2018-06-07 22:00:00 12.2 0 Calma 5 Sudeste 0.6 -- -- 96
2018-06-07 21:00:00 12.4 0 Calma 10 Sur 0 -- -- 96
2018-06-07 20:00:00 12.9 8 Sur 18 Sudeste 0 -- -- 90
2018-06-07 19:00:00 12.9 14 Sur 36 Sur 0 -- -- 89
2018-06-07 18:00:00 13.4 18 Sur 32 Sur 0 -- -- 85
2018-06-07 17:00:00 13.7 15 Sur 31 Sur 0 -- -- 83
2018-06-07 16:00:00 13.4 12 Sur 30 Sudoeste 0 -- -- 89
2018-06-07 15:00:00 12.7 13 Sur 34 Sudoeste 0 -- -- 91
2018-06-07 14:00:00 12.3 16 Sur 28 Sudoeste 0.2 -- -- 89
2018-06-07 13:00:00 12.1 7 Sur 19 Sudoeste 0.2 -- -- 92
2018-06-07 12:00:00 12 11 Sur 31 Sur 0 -- -- 86
2018-06-07 11:00:00 11.5 10 Sudoeste 22 Oeste 0 -- -- 91
2018-06-07 10:00:00 11.5 4 Oeste 15 Sudoeste 0 -- -- 88
2018-06-07 09:00:00 10.9 8 Sudoeste 18 Oeste 0 -- -- 92
2018-06-07 08:00:00 9.2 3 Oeste 10 Sudeste 0 -- -- 100
2018-06-07 07:00:00 8.5 0 Calma 3 Sudoeste 0 -- -- 100
2018-06-07 06:00:00 8.9 0 Calma 4 Norte 0 -- -- 100
2018-06-07 05:00:00 9 0 Calma 7 Sudoeste 0 -- -- 99
2018-06-07 04:00:00 9.6 3 Sudoeste 8 Sudoeste 0 -- -- 98
2018-06-07 03:00:00 10.5 2 Sur 5 Sudoeste 0 -- -- 97
2018-06-07 02:00:00 11 0 Calma 6 Sur 0 -- -- 97
2018-06-07 01:00:00 11.1 0 Calma 6 Sur 0 -- -- 96
2018-06-07 00:00:00 10.8 3 Sudeste 5 Sur 0 -- -- 96
2018-06-06 23:00:00 10.9 4 Sur 10 Sur 0 -- -- 94
2018-06-06 22:00:00 11.9 0 Calma 4 Sur 0 -- -- 91
2018-06-06 21:00:00 12.3 0 Calma 9 Sudoeste 0 -- -- 91
2018-06-06 20:00:00 12.6 2 Sudoeste 10 Oeste 0 -- -- 88
2018-06-06 19:00:00 12.8 2 Oeste 7 Oeste 0 -- -- 89
2018-06-06 18:00:00 13 0 Calma 12 Noroeste 0 -- -- 91
2018-06-06 17:00:00 13.2 5 Noroeste 19 Oeste 0 -- -- 88
2018-06-06 16:00:00 13.4 3 Norte 8 Norte 0 -- -- 90
2018-06-06 15:00:00 12 3 Nordeste 9 Norte 0.4 -- -- 95
2018-06-06 14:00:00 11.7 4 Nordeste 9 Nordeste 0 -- -- 98
2018-06-06 13:00:00 10.9 0 Calma 4 Sudeste 0 -- -- 99
2018-06-06 12:00:00 10.2 0 Calma 7 Norte 0 -- -- 98
2018-06-06 11:00:00 10.4 4 Nordeste 11 Nordeste 0 -- -- 97
2018-06-06 10:00:00 9.9 2 Norte 8 Norte 0 -- -- 99
2018-06-06 09:00:00 9.1 0 Calma 8 Nordeste 0.2 -- -- 100
2018-06-06 08:00:00 9 3 Norte 10 Noroeste 0 -- -- 100
2018-06-06 07:00:00 9 3 Norte 11 Norte 0.8 -- -- 100
2018-06-06 06:00:00 9.1 6 Norte 16 Norte 0.6 -- -- 100
2018-06-06 05:00:00 9.4 4 Norte 10 Norte 0 -- -- 100
2018-06-06 04:00:00 9.5 3 Norte 10 Norte 0 -- -- 100
2018-06-06 03:00:00 9.4 0 Calma 7 Norte 0.2 -- -- 100
2018-06-06 02:00:00 9.4 3 Norte 6 Sudeste 0 -- -- 100
2018-06-06 01:00:00 9.4 0 Calma 4 Oeste 0 -- -- 100
2018-06-06 00:00:00 9.6 0 Calma 6 Nordeste 0.2 -- -- 100
2018-06-05 23:00:00 9.7 3 Nordeste 8 Norte 0 -- -- 99
2018-06-05 22:00:00 10.1 0 Calma 6 Noroeste 0 -- -- 99
2018-06-05 21:00:00 10.2 2 Noroeste 10 Noroeste 0 -- -- 95
2018-06-05 20:00:00 10.7 3 Oeste 13 Oeste 0 -- -- 94
2018-06-05 19:00:00 11.2 3 Oeste 19 Sudoeste 0 -- -- 90
2018-06-05 18:00:00 11 2 Oeste 17 Oeste 0 -- -- 91
2018-06-05 17:00:00 11 5 Oeste 17 Oeste 0 -- -- 86
2018-06-05 16:00:00 11.3 4 Oeste 15 Oeste 0 -- -- 88
2018-06-05 15:00:00 10.4 0 Calma 6 Sudoeste 0 -- -- 91
2018-06-05 14:00:00 9.7 2 Oeste 10 Sudoeste 0 -- -- 93
2018-06-05 13:00:00 8.9 4 Sur 8 Sur 0.4 -- -- 98
2018-06-05 12:00:00 8.1 0 Calma 16 Oeste 2 -- -- 100
2018-06-05 11:00:00 7.5 3 Oeste 10 Sudoeste 1.8 -- -- 100
2018-06-05 10:00:00 7.5 2 Oeste 10 Oeste 0.4 -- -- 100
2018-06-05 09:00:00 7.4 4 Noroeste 11 Oeste 0 -- -- 100
2018-06-05 08:00:00 7.5 0 Calma 10 Oeste 0 -- -- 100
2018-06-05 07:00:00 7.4 3 Oeste 12 Norte 0 -- -- 100
2018-06-05 06:00:00 7.5 3 Noroeste 15 Noroeste 0 -- -- 100
2018-06-05 05:00:00 7.6 5 Noroeste 12 Noroeste 0.2 -- -- 100
2018-06-05 04:00:00 7.8 2 Oeste 8 Oeste 0 -- -- 100
2018-06-05 03:00:00 7.9 0 Calma 7 Norte 0 -- -- 100
2018-06-05 02:00:00 7.7 2 Noroeste 12 Noroeste 0 -- -- 100
2018-06-05 01:00:00 7.7 3 Noroeste 10 Noroeste 0.4 -- -- 100
2018-06-05 00:00:00 7.9 0 Calma 12 Sudoeste 0.8 -- -- 100
2018-06-04 23:00:00 7.9 2 Oeste 10 Sudoeste 1.6 -- -- 100
2018-06-04 22:00:00 7.8 3 Sudoeste 17 Sudoeste 1.8 -- -- 99
2018-06-04 21:00:00 7.9 6 Sudoeste 18 Sudoeste 5 -- -- 99
2018-06-04 20:00:00 8.1 0 Calma 17 Sudoeste 2.2 -- -- 98
2018-06-04 19:00:00 8.1 4 Oeste 16 Noroeste 1.8 -- -- 96
2018-06-04 18:00:00 8.5 6 Noroeste 19 Oeste 1.4 -- -- 95
2018-06-04 17:00:00 9.7 6 Oeste 22 Oeste 0.4 -- -- 94
2018-06-04 16:00:00 9.1 6 Noroeste 23 Noroeste 0.4 -- -- 92
2018-06-04 15:00:00 9.8 8 Oeste 26 Sudoeste 0 -- -- 91
2018-06-04 14:00:00 10.2 5 Oeste 25 Sudoeste 0 -- -- 87
2018-06-04 13:00:00 9.3 6 Oeste 17 Oeste 0.2 -- -- 93
2018-06-04 12:00:00 9 3 Oeste 13 Oeste 1.2 -- -- 95
2018-06-04 11:00:00 9 2 Sudeste 10 Sudoeste 1.4 -- -- 98
2018-06-04 10:00:00 8.2 7 Sudoeste 14 Sudoeste 1.6 -- -- 97
2018-06-04 09:00:00 7.9 4 Sudoeste 21 Sudoeste 0.8 -- -- 97
2018-06-04 08:00:00 7.6 12 Sur 23 Sudoeste 0.2 -- -- 95
2018-06-04 07:00:00 7.4 10 Sudoeste 21 Sur 0.6 -- -- 94
2018-06-04 06:00:00 7.9 2 Sudoeste 16 Sur 0 -- -- 96
2018-06-04 05:00:00 7.9 6 Sur 21 Sudoeste 0 -- -- 96
2018-06-04 04:00:00 8.2 8 Sudoeste 23 Sudoeste 0 -- -- 93
2018-06-04 03:00:00 8.4 14 Sudoeste 30 Sudoeste 0 -- -- 93
2018-06-04 02:00:00 8.9 14 Sudoeste 32 Sur 0 -- -- 88
2018-06-04 01:00:00 9 5 Sur 21 Sur 0 -- -- 91
2018-06-04 00:00:00 9.4 6 Sudoeste 20 Sudoeste 0 -- -- 86
2018-06-03 23:00:00 9.3 7 Sudoeste 23 Sudoeste 0 -- -- 84
2018-06-03 22:00:00 10.1 14 Sudoeste 27 Sudoeste 0 -- -- 83
2018-06-03 21:00:00 10.9 11 Sur 24 Sudoeste 0 -- -- 79
2018-06-03 20:00:00 11.1 4 Oeste 18 Sudoeste 0 -- -- 80
2018-06-03 19:00:00 11.3 4 Oeste 19 Sudoeste 0 -- -- 81
2018-06-03 18:00:00 12.2 10 Sur 30 Oeste 0 -- -- 77
2018-06-03 17:00:00 12.3 8 Oeste 29 Sudoeste 0 -- -- 77
2018-06-03 16:00:00 12.5 6 Oeste 29 Sudoeste 0 -- -- 78
2018-06-03 15:00:00 14.3 8 Sudoeste 26 Oeste 0 -- -- 72
2018-06-03 14:00:00 12.6 10 Sudoeste 28 Oeste 0 -- -- 79
2018-06-03 13:00:00 14.9 12 Sudoeste 28 Sur 0 -- -- 65
2018-06-03 12:00:00 13.1 13 Sudoeste 24 Oeste 0 -- -- 78
2018-06-03 11:00:00 12.1 10 Sudoeste 22 Oeste 0 -- -- 88
2018-06-03 10:00:00 12.3 7 Sudoeste 18 Sur 0 -- -- 90
2018-06-03 09:00:00 10.3 0 Calma 3 Sudeste 0 -- -- 98
2018-06-03 08:00:00 9.5 0 Calma 9 Sudoeste 0 -- -- 100
2018-06-03 07:00:00 8.8 3 Sur 6 Sur 0 -- -- 96
2018-06-03 06:00:00 8.8 2 Sur 5 Sudoeste 0 -- -- 97
2018-06-03 05:00:00 8.4 0 Calma 8 Sur 0 -- -- 97
2018-06-03 04:00:00 7.6 2 Sur 6 Sur 0 -- -- 93
2018-06-03 03:00:00 8.2 4 Sur 10 Sur 0 -- -- 92
2018-06-03 02:00:00 9.2 0 Calma 5 Noroeste 0 -- -- 95
2018-06-03 01:00:00 10.4 0 Calma 8 Sudoeste 0 -- -- 92
2018-06-03 00:00:00 11.4 0 Calma 5 Noroeste 0 -- -- 87
2018-06-02 23:00:00 12.3 3 Oeste 12 Oeste 0 -- -- 83
2018-06-02 22:00:00 13.5 2 Oeste 13 Oeste 0 -- -- 83
2018-06-02 21:00:00 15.2 7 Sudoeste 22 Oeste 0 -- -- 82
2018-06-02 20:00:00 16.6 9 Oeste 24 Oeste 0 -- -- 74
2018-06-02 19:00:00 16.9 8 Noroeste 22 Noroeste 0 -- -- 74
2018-06-02 18:00:00 16.9 3 Norte 17 Noroeste 0 -- -- 72
2018-06-02 17:00:00 17.3 8 Noroeste 23 Oeste 0 -- -- 69
2018-06-02 16:00:00 17.9 7 Noroeste 35 Noroeste 0 -- -- 67
2018-06-02 15:00:00 19 8 Noroeste 21 Oeste 0 -- -- 66
2018-06-02 14:00:00 19.9 6 Sudoeste 14 Oeste 0 -- -- 66
2018-06-02 13:00:00 17.9 3 Norte 12 Nordeste 0 -- -- 70
2018-06-02 12:00:00 15.3 8 Nordeste 14 Nordeste 0 -- -- 83
2018-06-02 11:00:00 12 4 Norte 8 Norte 0 -- -- 95
2018-06-02 10:00:00 9.2 3 Norte 11 Nordeste 0 -- -- 100
2018-06-02 09:00:00 9.4 3 Norte 6 Nordeste 0 -- -- 93
2018-06-02 08:00:00 6.8 3 Oeste 9 Sudoeste 0 -- -- 100
2018-06-02 07:00:00 6.8 0 Calma 3 Sudoeste 0 -- -- 100
2018-06-02 06:00:00 7.3 0 Calma 4 Sur 0 -- -- 100
2018-06-02 05:00:00 7.6 0 Calma 5 Sudoeste 0 -- -- 100
2018-06-02 04:00:00 7.7 3 Sur 7 Sur 0 -- -- 98
2018-06-02 03:00:00 8.1 0 Calma 10 Sur 0 -- -- 97
2018-06-02 02:00:00 8.7 4 Sur 8 Sudoeste 0 -- -- 99
2018-06-02 01:00:00 8.7 0 Calma 5 Sudoeste 0 -- -- 98
2018-06-02 00:00:00 9.5 0 Calma 4 Sudoeste 0 -- -- 96
2018-06-01 23:00:00 10.3 2 Sur 4 Sudoeste 0 -- -- 94
2018-06-01 22:00:00 11 0 Calma 6 Noroeste 0 -- -- 89
2018-06-01 21:00:00 11.3 0 Calma 11 Norte 0 -- -- 91
2018-06-01 20:00:00 11.3 4 Norte 18 Nordeste 0 -- -- 90
2018-06-01 19:00:00 12.9 8 Nordeste 17 Nordeste 0 -- -- 79
2018-06-01 18:00:00 13.4 5 Norte 17 Norte 0 -- -- 77
2018-06-01 17:00:00 12.5 7 Norte 18 Nordeste 0 -- -- 82
2018-06-01 16:00:00 11.9 6 Norte 15 Norte 0 -- -- 81
2018-06-01 15:00:00 11.3 5 Norte 14 Norte 0 -- -- 85
2018-06-01 14:00:00 11 6 Norte 15 Norte 0 -- -- 85
2018-06-01 13:00:00 10.5 5 Norte 13 Norte 0.2 -- -- 86
2018-06-01 12:00:00 9 3 Norte 12 Nordeste 0 -- -- 92
2018-06-01 11:00:00 8.9 3 Nordeste 8 Nordeste 0 -- -- 89
2018-06-01 10:00:00 8.4 0 Calma 4 Nordeste 0 -- -- 89
2018-06-01 09:00:00 7.6 0 Calma 2 Norte 0 -- -- 97
2018-06-01 08:00:00 7.3 0 Calma 5 Sur 0 -- -- 98
2018-06-01 07:00:00 7.1 2 Sur 8 Sur 0 -- -- 97
2018-06-01 06:00:00 7.3 0 Calma 3 Sur 0 -- -- 98
2018-06-01 05:00:00 7.4 0 Calma 6 Noroeste 0 -- -- 98
2018-06-01 04:00:00 7.7 3 Noroeste 8 Oeste 0 -- -- 98
2018-06-01 03:00:00 7.8 2 Norte 5 Norte 0 -- -- 98
2018-06-01 02:00:00 7.8 0 Calma 8 Oeste 0 -- -- 97
2018-06-01 01:00:00 7.8 0 Calma 16 Sudoeste 0 -- -- 98
2018-06-01 00:00:00 8.3 2 Oeste 14 Sudoeste 0 -- -- 98
2018-05-31 23:00:00 8.6 3 Oeste 13 Oeste 0 -- -- 99
2018-05-31 22:00:00 9.5 3 Oeste 17 Sudoeste 0 -- -- 99
2018-05-31 21:00:00 9.9 4 Oeste 18 Oeste 0 -- -- 96
2018-05-31 20:00:00 11.1 6 Oeste 15 Noroeste 0.2 -- -- 92
2018-05-31 19:00:00 12.3 2 Oeste 8 Sudoeste 0.2 -- -- 90
2018-05-31 18:00:00 11.7 3 Oeste 21 Oeste 0 -- -- 94
2018-05-31 17:00:00 13.4 6 Oeste 27 Oeste 0 -- -- 83
2018-05-31 16:00:00 15 6 Oeste 22 Sudoeste 0 -- -- 71
2018-05-31 15:00:00 14.1 12 Oeste 24 Oeste 0 -- -- 75
2018-05-31 14:00:00 13.8 5 Oeste 19 Oeste 0 -- -- 78
2018-05-31 13:00:00 13.5 3 Sudoeste 8 Sudoeste 0 -- -- 73
2018-05-31 12:00:00 12.2 2 Sur 10 Sudoeste 0 -- -- 77
2018-05-31 11:00:00 11.4 4 Sudeste 18 Sur 0 -- -- 80
2018-05-31 10:00:00 9.3 4 Sur 12 Sudoeste 0 -- -- 88
2018-05-31 09:00:00 8.6 3 Oeste 10 Sudoeste 0 -- -- 91
2018-05-31 08:00:00 8.6 4 Sudoeste 10 Sudoeste 0 -- -- 94
2018-05-31 07:00:00 8.6 3 Sudoeste 12 Sur 0 -- -- 94
2018-05-31 06:00:00 8.7 6 Sudoeste 12 Sudoeste 0 -- -- 95
2018-05-31 05:00:00 9 0 Calma 5 Sur 0 -- -- 98
2018-05-31 04:00:00 9.1 0 Calma 3 Sudeste 0 -- -- 98
2018-05-31 03:00:00 9.2 0 Calma 4 Sudoeste 0 -- -- 98
2018-05-31 02:00:00 9.2 0 Calma 6 Sudoeste 0 -- -- 99
2018-05-31 01:00:00 9.1 0 Calma 10 Sudoeste 0 -- -- 98
2018-05-31 00:00:00 9.2 0 Calma 9 Oeste 0 -- -- 98
2018-05-30 23:00:00 9.6 0 Calma 9 Oeste 0 -- -- 97
2018-05-30 22:00:00 9.6 4 Oeste 11 Sudoeste 0 -- -- 96
2018-05-30 21:00:00 9.9 2 Sudoeste 17 Oeste 0 -- -- 95
2018-05-30 20:00:00 9.9 4 Oeste 14 Noroeste 0 -- -- 94
2018-05-30 19:00:00 10.3 4 Sudoeste 13 Oeste 0 -- -- 95
2018-05-30 18:00:00 10.1 3 Oeste 19 Oeste 0 -- -- 95
2018-05-30 17:00:00 11.1 6 Oeste 16 Oeste 0 -- -- 90
2018-05-30 16:00:00 10.8 5 Noroeste 15 Oeste 0 -- -- 90
2018-05-30 15:00:00 11 3 Oeste 18 Oeste 0 -- -- 89
2018-05-30 14:00:00 10.3 4 Oeste 14 Oeste 0 -- -- 92
2018-05-30 13:00:00 10.4 2 Oeste 9 Sudoeste 0 -- -- 93
2018-05-30 12:00:00 9.5 2 Oeste 9 Oeste 0 -- -- 98
2018-05-30 11:00:00 9.2 2 Oeste 14 Oeste 0 -- -- 99
2018-05-30 10:00:00 9.4 2 Oeste 11 Oeste 0 -- -- 100
2018-05-30 09:00:00 9.8 2 Oeste 12 Oeste 0 -- -- 98
2018-05-30 08:00:00 9.6 0 Calma 5 Sudoeste 0 -- -- 99
2018-05-30 07:00:00 9.3 2 Sur 9 Sur 0 -- -- 98
2018-05-30 06:00:00 9.7 3 Sudeste 5 Sur 0 -- -- 96
2018-05-30 05:00:00 9.8 0 Calma 5 Noroeste 0 -- -- 96
2018-05-30 04:00:00 10.1 0 Calma 4 Noroeste 0 -- -- 95
2018-05-30 03:00:00 10.2 0 Calma 5 Noroeste 0 -- -- 94
2018-05-30 02:00:00 10.5 0 Calma 6 Nordeste 0 -- -- 96
2018-05-30 01:00:00 10.6 2 Norte 6 Norte 0 -- -- 96
2018-05-30 00:00:00 10.8 4 Norte 14 Norte 0 -- -- 96
2018-05-29 23:00:00 11 4 Norte 17 Norte 0 -- -- 96
2018-05-29 22:00:00 11.5 3 Norte 12 Nordeste 0 -- -- 96
2018-05-29 21:00:00 12 4 Norte 15 Noroeste 0 -- -- 93
2018-05-29 20:00:00 12.8 3 Norte 18 Noroeste 0 -- -- 91
2018-05-29 19:00:00 13.3 4 Norte 21 Noroeste 0 -- -- 92
2018-05-29 18:00:00 13.4 6 Norte 15 Noroeste 0.4 -- -- 91
2018-05-29 17:00:00 14.1 0 Calma 6 Sur 0.2 -- -- 92
2018-05-29 16:00:00 12.7 0 Calma 5 Noroeste 3 -- -- 94
2018-05-29 15:00:00 12.6 0 Calma 10 Sudoeste 3.4 -- -- 94
2018-05-29 14:00:00 13.1 0 Calma 7 Norte 0 -- -- 92
2018-05-29 13:00:00 12.6 3 Norte 9 Nordeste 0 -- -- 96
2018-05-29 12:00:00 12.4 5 Norte 11 Norte 0 -- -- 95
2018-05-29 11:00:00 12.1 4 Norte 8 Norte 0 -- -- 97
2018-05-29 10:00:00 11.5 3 Norte 5 Nordeste 0 -- -- 100
2018-05-29 09:00:00 10.5 3 Norte 5 Norte 0 -- -- 100
2018-05-29 08:00:00 10.4 0 Calma 2 Norte 0.2 -- -- 100
2018-05-29 07:00:00 10.3 0 Calma 3 Este 0 -- -- 100
2018-05-29 06:00:00 10.2 0 Calma 4 Este 0.2 -- -- 100
2018-05-29 05:00:00 10.1 2 Nordeste 6 Norte 2 -- -- 100
2018-05-29 04:00:00 10.2 3 Nordeste 6 Nordeste 0.6 -- -- 100
2018-05-29 03:00:00 10.4 0 Calma 3 Nordeste 0 -- -- 100
2018-05-29 02:00:00 10.5 0 Calma 4 Sur 0 -- -- 99
2018-05-29 01:00:00 10.6 0 Calma 3 Sudoeste 0 -- -- 99
2018-05-29 00:00:00 10.7 0 Calma 3 Sur 0 -- -- 99
2018-05-28 23:00:00 10.8 0 Calma 3 Nordeste 0 -- -- 98
2018-05-28 22:00:00 10.9 0 Calma 11 Norte 0 -- -- 99
2018-05-28 21:00:00 11.2 4 Norte 12 Nordeste 0 -- -- 98
2018-05-28 20:00:00 11.4 5 Nordeste 12 Nordeste 0.2 -- -- 96
2018-05-28 19:00:00 11.4 2 Norte 9 Norte 1.4 -- -- 97
2018-05-28 18:00:00 11.9 5 Norte 10 Norte 0.4 -- -- 95
2018-05-28 17:00:00 12.1 0 Calma 5 Este 0.4 -- -- 96
2018-05-28 16:00:00 11.9 0 Calma 4 Sudoeste 1.4 -- -- 94
2018-05-28 15:00:00 11.8 3 Sur 6 Sur 0 -- -- 91
2018-05-28 14:00:00 11.2 2 Nordeste 12 Norte 0 -- -- 89
2018-05-28 13:00:00 11.1 6 Norte 12 Norte 0 -- -- 90
2018-05-28 12:00:00 10.3 3 Nordeste 13 Nordeste 0 -- -- 92
2018-05-28 11:00:00 9.6 4 Norte 10 Nordeste 0 -- -- 93
2018-05-28 10:00:00 9.3 6 Norte 12 Nordeste 0 -- -- 91
2018-05-28 09:00:00 8.4 0 Calma 10 Nordeste 0 -- -- 97
2018-05-28 08:00:00 8 5 Norte 10 Nordeste 0 -- -- 94
2018-05-28 07:00:00 8.4 0 Calma 4 Sur 0 -- -- 92
2018-05-28 06:00:00 8.7 0 Calma 3 Sudeste 0 -- -- 91
2018-05-28 05:00:00 8.7 0 Calma 5 Nordeste 0 -- -- 93
2018-05-28 04:00:00 8.9 0 Calma 9 Noroeste 0 -- -- 92
2018-05-28 03:00:00 9.1 2 Norte 10 Norte 0 -- -- 94
2018-05-28 02:00:00 9.2 3 Nordeste 13 Nordeste 0 -- -- 94
2018-05-28 01:00:00 9.6 2 Norte 9 Noroeste 0 -- -- 93
2018-05-28 00:00:00 10 4 Norte 13 Nordeste 0 -- -- 92
2018-05-27 23:00:00 11 5 Norte 12 Nordeste 0 -- -- 88
2018-05-27 22:00:00 12.1 2 Norte 7 Nordeste 0 -- -- 80
2018-05-27 21:00:00 12.7 5 Nordeste 18 Noroeste 0 -- -- 79
2018-05-27 20:00:00 13.4 7 Norte 24 Norte 0 -- -- 76
2018-05-27 19:00:00 13.3 12 Norte 28 Norte 0 -- -- 80
2018-05-27 18:00:00 14.4 7 Noroeste 22 Noroeste 0 -- -- 79
2018-05-27 17:00:00 15.9 4 Noroeste 20 Oeste 0 -- -- 76
2018-05-27 16:00:00 16.9 6 Oeste 21 Oeste 0 -- -- 71
2018-05-27 15:00:00 15.7 9 Oeste 19 Oeste 0 -- -- 77
2018-05-27 14:00:00 14.3 6 Oeste 19 Oeste 0 -- -- 82
2018-05-27 13:00:00 13.7 2 Sudoeste 13 Norte 0 -- -- 85
2018-05-27 12:00:00 13.2 3 Norte 8 Norte 0 -- -- 87
2018-05-27 11:00:00 12.3 2 Norte 6 Sudeste 0 -- -- 96
2018-05-27 10:00:00 10.2 4 Sur 8 Sur 0 -- -- 100
2018-05-27 09:00:00 8.3 2 Sur 4 Sur 0 -- -- 100
2018-05-27 08:00:00 8.1 0 Calma 5 Sur 0 -- -- 100
2018-05-27 07:00:00 8.4 0 Calma 6 Sudeste 0.2 -- -- 100
2018-05-27 06:00:00 8.9 0 Calma 3 Sudoeste 0 -- -- 100
2018-05-27 05:00:00 9 0 Calma 6 Sudoeste 0 -- -- 99
2018-05-27 04:00:00 9.4 3 Sudoeste 6 Sur 0 -- -- 98
2018-05-27 03:00:00 10 2 Sudoeste 7 Oeste 0 -- -- 98
2018-05-27 02:00:00 10.4 3 Oeste 9 Oeste 0 -- -- 98
2018-05-27 01:00:00 11.1 0 Calma 4 Sur 0 -- -- 98
2018-05-27 00:00:00 11.2 3 Sur 4 Sur 0 -- -- 97
2018-05-26 23:00:00 11.5 2 Sur 4 Sur 0 -- -- 97
2018-05-26 22:00:00 11.8 0 Calma 4 Sur 0 -- -- 96
2018-05-26 21:00:00 12.1 2 Sudeste 3 Sudeste 3.8 -- -- 94
2018-05-26 20:00:00 12.6 0 Calma 9 Sur 4.2 -- -- 93
2018-05-26 19:00:00 13.3 3 Sur 14 Norte 0 -- -- 90
2018-05-26 18:00:00 14.1 5 Norte 9 Norte 0 -- -- 87
2018-05-26 17:00:00 14.4 0 Calma 8 Norte 0.2 -- -- 82
2018-05-26 16:00:00 16 4 Norte 9 Norte 0 -- -- 72
2018-05-26 15:00:00 14.2 0 Calma 6 Sur 0 -- -- 81
2018-05-26 14:00:00 12.8 4 Sudeste 6 Sudeste 0.6 -- -- 88
2018-05-26 13:00:00 12 3 Noroeste 15 Nordeste 1.6 -- -- 91
2018-05-26 12:00:00 13.5 6 Norte 15 Norte 0 -- -- 82
2018-05-26 11:00:00 12.1 5 Nordeste 13 Nordeste 0 -- -- 87
2018-05-26 10:00:00 10.5 0 Calma 5 Sudoeste 0 -- -- 94
2018-05-26 09:00:00 8.7 2 Sur 6 Sudeste 0 -- -- 100
2018-05-26 08:00:00 7.7 0 Calma 4 Este 0 -- -- 100
2018-05-26 07:00:00 7.5 2 Noroeste 5 Sur 0 -- -- 100
2018-05-26 06:00:00 7.3 0 Calma 4 Sur 0 -- -- 99
2018-05-26 05:00:00 8 0 Calma 6 Sur 0 -- -- 99
2018-05-26 04:00:00 8.2 0 Calma 5 Sur 0 -- -- 99
2018-05-26 03:00:00 8.3 2 Sur 4 Sur 0 -- -- 99
2018-05-26 02:00:00 8.3 3 Sur 5 Sur 0 -- -- 98
2018-05-26 01:00:00 8.5 0 Calma 5 Sur 0 -- -- 97
2018-05-26 00:00:00 9.2 2 Sudeste 4 Sur 0.2 -- -- 96
2018-05-25 23:00:00 9.6 0 Calma 14 Sudoeste 0 -- -- 94
2018-05-25 22:00:00 9.8 2 Sur 13 Sudeste 2.4 -- -- 96
2018-05-25 21:00:00 10.1 2 Este 22 Sudeste 3.4 -- -- 93
2018-05-25 20:00:00 11.6 6 Sudeste 14 Nordeste 1.6 -- -- 92
2018-05-25 19:00:00 12.4 5 Norte 17 Nordeste 0.2 -- -- 96
2018-05-25 18:00:00 13.5 7 Norte 16 Norte 0 -- -- 92
2018-05-25 17:00:00 13.8 0 Calma 11 Sudoeste 0 -- -- 86
2018-05-25 16:00:00 13.5 3 Sur 10 Nordeste 0.4 -- -- 88
2018-05-25 15:00:00 12.8 4 Norte 23 Nordeste 2.2 -- -- 95
2018-05-25 14:00:00 13.6 14 Nordeste 24 Nordeste 0 -- -- 87
2018-05-25 13:00:00 13.7 11 Norte 23 Nordeste 0 -- -- 85
2018-05-25 12:00:00 13.2 11 Nordeste 26 Nordeste 0 -- -- 87
2018-05-25 11:00:00 12.9 9 Nordeste 24 Nordeste 0 -- -- 88
2018-05-25 10:00:00 12.1 0 Calma 6 Sudoeste 0 -- -- 94
2018-05-25 09:00:00 10.4 0 Calma 5 Sur 0 -- -- 99
2018-05-25 08:00:00 9.9 0 Calma 6 Sur 0 -- -- 99
2018-05-25 07:00:00 9.8 3 Sur 6 Sur 0.2 -- -- 98
2018-05-25 06:00:00 10.1 2 Sur 4 Sur 0 -- -- 97
2018-05-25 05:00:00 10.4 3 Sudeste 5 Sudoeste 0 -- -- 96
2018-05-25 04:00:00 11.2 2 Sur 11 Norte 0 -- -- 95
2018-05-25 03:00:00 11.5 7 Este 23 Norte 0 -- -- 96
2018-05-25 02:00:00 11.9 7 Nordeste 15 Nordeste 0.2 -- -- 94
2018-05-25 01:00:00 12 6 Nordeste 12 Norte 0 -- -- 93
2018-05-25 00:00:00 11.8 3 Sudoeste 9 Sur 0.2 -- -- 94
2018-05-24 23:00:00 11.8 0 Calma 6 Sur 0 -- -- 93
2018-05-24 22:00:00 12.1 3 Sudeste 8 Sur 0.2 -- -- 90
2018-05-24 21:00:00 12.9 2 Nordeste 8 Norte 0 -- -- 88
2018-05-24 20:00:00 13.5 2 Nordeste 6 Norte 0 -- -- 81
2018-05-24 19:00:00 13.2 2 Norte 48 Sur 0.2 -- -- 82
2018-05-24 18:00:00 15.5 22 Sudeste 44 Sur 0 -- -- 63
2018-05-24 17:00:00 17.4 10 Sudeste 39 Sudeste 0 -- -- 64
2018-05-24 16:00:00 19.7 13 Sudeste 30 Sur 0 -- -- 56
2018-05-24 15:00:00 20.2 8 Sur 24 Sur 0 -- -- 56
2018-05-24 14:00:00 20 19 Sur 29 Sur 0 -- -- 59
2018-05-24 13:00:00 18.2 6 Norte 10 Norte 0 -- -- 72
2018-05-24 12:00:00 16.2 5 Norte 10 Norte 0 -- -- 80
2018-05-24 11:00:00 14.9 4 Nordeste 7 Nordeste 0 -- -- 82
2018-05-24 10:00:00 12.6 0 Calma 4 Nordeste 0 -- -- 85
2018-05-24 09:00:00 9.8 2 Sur 4 Sudoeste 0 -- -- 96
2018-05-24 08:00:00 8.4 3 Sur 4 Sur 0 -- -- 96
2018-05-24 07:00:00 8.5 0 Calma 4 Sudoeste 0 -- -- 96
2018-05-24 06:00:00 9 2 Sur 4 Sudoeste 0 -- -- 94
2018-05-24 05:00:00 9.6 0 Calma 5 Oeste 0 -- -- 94
2018-05-24 04:00:00 9.9 2 Oeste 5 Sur 0 -- -- 95
2018-05-24 03:00:00 9.9 2 Sudoeste 8 Sur 0 -- -- 93
2018-05-24 02:00:00 10.3 4 Sur 9 Sudoeste 0 -- -- 88
2018-05-24 01:00:00 11 4 Sur 14 Sur 0 -- -- 86
2018-05-24 00:00:00 12 5 Sur 11 Sur 0 -- -- 84
2018-05-23 23:00:00 13.7 2 Sur 4 Sur 0 -- -- 80
2018-05-23 22:00:00 14.4 3 Sudeste 11 Nordeste 0 -- -- 77
2018-05-23 21:00:00 15.3 6 Norte 15 Noroeste 0 -- -- 73
2018-05-23 20:00:00 16.6 0 Calma 27 Norte 0 -- -- 70
2018-05-23 19:00:00 19.2 9 Norte 30 Norte 0 -- -- 59
2018-05-23 18:00:00 21.6 7 Sur 23 Sudoeste 0 -- -- 37
2018-05-23 17:00:00 21.3 10 Sudoeste 32 Sudoeste 0 -- -- 46
2018-05-23 16:00:00 21.7 15 Sur 31 Sur 0 -- -- 45
2018-05-23 15:00:00 21 18 Sur 31 Sur 0 -- -- 49
2018-05-23 14:00:00 20.7 8 Sudoeste 23 Sudeste 0 -- -- 52
2018-05-23 13:00:00 19.8 9 Sudoeste 23 Sudoeste 0 -- -- 52
2018-05-23 12:00:00 19.1 12 Sur 33 Sur 0 -- -- 55
2018-05-23 11:00:00 17.9 17 Sur 27 Sudoeste 0 -- -- 58
2018-05-23 10:00:00 15.6 4 Sudoeste 12 Sudoeste 0 -- -- 73
2018-05-23 09:00:00 12.6 2 Sudoeste 6 Sudoeste 0 -- -- 82
2018-05-23 08:00:00 9.5 4 Sudoeste 5 Sur 0 -- -- 97
2018-05-23 07:00:00 9 2 Sudoeste 5 Sudoeste 0 -- -- 96
2018-05-23 06:00:00 9 2 Sudoeste 5 Sudoeste 0 -- -- 95
2018-05-23 05:00:00 9.2 2 Sudoeste 8 Sudoeste 0 -- -- 94
2018-05-23 04:00:00 9.3 3 Sudoeste 5 Sudoeste 0 -- -- 94
2018-05-23 03:00:00 9.7 4 Sudoeste 6 Sudoeste 0 -- -- 92
2018-05-23 02:00:00 10.3 3 Sudoeste 7 Sur 0 -- -- 88
2018-05-23 01:00:00 11.3 0 Calma 9 Sur 0 -- -- 87
2018-05-23 00:00:00 12.3 6 Sur 12 Sur 0 -- -- 80
2018-05-22 23:00:00 14 3 Sudoeste 14 Sur 0 -- -- 77
2018-05-22 22:00:00 16.3 0 Calma 6 Nordeste 0 -- -- 69
2018-05-22 21:00:00 17.5 2 Norte 10 Nordeste 0 -- -- 65
2018-05-22 20:00:00 18.2 3 Norte 8 Nordeste 0 -- -- 62
2018-05-22 19:00:00 18.2 3 Sur 6 Sur 0 -- -- 65
2018-05-22 18:00:00 18.4 3 Sur 6 Sur 0 -- -- 63
2018-05-22 17:00:00 18.3 2 Norte 7 Norte 0 -- -- 61
2018-05-22 16:00:00 16.9 0 Calma 8 Sudeste 0.2 -- -- 72
2018-05-22 15:00:00 17 3 Este 15 Noroeste 0 -- -- 70
2018-05-22 14:00:00 17.4 6 Noroeste 13 Noroeste 0 -- -- 67
2018-05-22 13:00:00 17.9 5 Norte 17 Norte 0 -- -- 64
2018-05-22 12:00:00 17.7 10 Norte 15 Norte 0 -- -- 71
2018-05-22 11:00:00 15.8 5 Norte 10 Nordeste 0 -- -- 80
2018-05-22 10:00:00 12.7 4 Norte 8 Nordeste 0 -- -- 81
2018-05-22 09:00:00 10.2 0 Calma 4 Sur 0 -- -- 89
2018-05-22 08:00:00 6.9 3 Sur 4 Sur 0 -- -- 97
2018-05-22 07:00:00 6.8 3 Sudoeste 6 Sudoeste 0 -- -- 97
2018-05-22 06:00:00 7 2 Sur 5 Sur 0 -- -- 96
2018-05-22 05:00:00 7.6 0 Calma 5 Sur 0 -- -- 95
2018-05-22 04:00:00 8.1 4 Sur 6 Sudoeste 0 -- -- 92
2018-05-22 03:00:00 8.9 2 Sur 6 Sur 0 -- -- 95
2018-05-22 02:00:00 9.7 2 Sur 5 Sudeste 0 -- -- 91
2018-05-22 01:00:00 10.4 3 Sudeste 12 Sur 0 -- -- 90
2018-05-22 00:00:00 11.6 6 Sur 15 Sur 0 -- -- 89